sensor_id;sensor_type;location;lat;lon;timestamp;pressure;altitude;pressure_sealevel;temperature;humidity
6433;BME280;3249;42.690;23.260;2023-05-14T00:00:10;94707.75;;;13.79;90.66
6433;BME280;3249;42.690;23.260;2023-05-14T00:02:39;94704.28;;;13.85;91.07
6433;BME280;3249;42.690;23.260;2023-05-14T00:05:08;94702.13;;;13.93;92.33
6433;BME280;3249;42.690;23.260;2023-05-14T00:07:37;94699.13;;;13.85;92.64
6433;BME280;3249;42.690;23.260;2023-05-14T00:10:09;94706.41;;;14.00;90.14
6433;BME280;3249;42.690;23.260;2023-05-14T00:12:39;94696.16;;;13.81;89.83
6433;BME280;3249;42.690;23.260;2023-05-14T00:15:08;94688.75;;;13.97;88.81
6433;BME280;3249;42.690;23.260;2023-05-14T00:17:37;94677.28;;;13.93;89.91
6433;BME280;3249;42.690;23.260;2023-05-14T00:20:08;94655.69;;;13.52;87.31
6433;BME280;3249;42.690;23.260;2023-05-14T00:22:38;94675.78;;;13.50;88.05
6433;BME280;3249;42.690;23.260;2023-05-14T00:25:10;94669.41;;;13.53;87.99
6433;BME280;3249;42.690;23.260;2023-05-14T00:27:39;94653.22;;;13.46;87.68
6433;BME280;3249;42.690;23.260;2023-05-14T00:30:09;94663.53;;;13.57;88.05
6433;BME280;3249;42.690;23.260;2023-05-14T00:32:38;94672.88;;;13.58;87.84
6433;BME280;3249;42.690;23.260;2023-05-14T00:35:07;94662.84;;;13.50;87.94
6433;BME280;3249;42.690;23.260;2023-05-14T00:37:37;94653.44;;;13.44;88.32
6433;BME280;3249;42.690;23.260;2023-05-14T00:40:11;94664.22;;;13.41;88.54
6433;BME280;3249;42.690;23.260;2023-05-14T00:42:40;94655.66;;;13.41;89.43
6433;BME280;3249;42.690;23.260;2023-05-14T00:45:10;94655.00;;;13.34;88.06
6433;BME280;3249;42.690;23.260;2023-05-14T00:47:39;94637.88;;;13.10;89.53
6433;BME280;3249;42.690;23.260;2023-05-14T00:50:09;94659.22;;;13.17;91.52
6433;BME280;3249;42.690;23.260;2023-05-14T00:52:39;94646.44;;;13.22;90.60
6433;BME280;3249;42.690;23.260;2023-05-14T00:55:13;94654.31;;;13.27;91.32
6433;BME280;3249;42.690;23.260;2023-05-14T00:57:44;94652.38;;;13.22;91.15
6433;BME280;3249;42.690;23.260;2023-05-14T01:00:14;94644.19;;;13.14;91.31
6433;BME280;3249;42.690;23.260;2023-05-14T01:02:43;94639.66;;;13.09;90.57
6433;BME280;3249;42.690;23.260;2023-05-14T01:05:12;94645.38;;;13.00;92.85
6433;BME280;3249;42.690;23.260;2023-05-14T01:07:51;94650.66;;;13.05;90.30
6433;BME280;3249;42.690;23.260;2023-05-14T01:10:41;94648.59;;;12.95;90.01
6433;BME280;3249;42.690;23.260;2023-05-14T01:13:18;94639.75;;;13.03;88.73
6433;BME280;3249;42.690;23.260;2023-05-14T01:15:55;94637.69;;;12.93;88.14
6433;BME280;3249;42.690;23.260;2023-05-14T01:18:27;94636.06;;;12.99;87.51
6433;BME280;3249;42.690;23.260;2023-05-14T01:20:56;94651.34;;;13.00;87.06
6433;BME280;3249;42.690;23.260;2023-05-14T01:23:28;94659.16;;;12.94;87.08
6433;BME280;3249;42.690;23.260;2023-05-14T01:25:57;94665.91;;;12.95;86.81
6433;BME280;3249;42.690;23.260;2023-05-14T01:28:31;94659.63;;;12.73;86.66
6433;BME280;3249;42.690;23.260;2023-05-14T01:31:07;94666.53;;;12.79;86.09
6433;BME280;3249;42.690;23.260;2023-05-14T01:33:41;94675.09;;;12.91;85.81
6433;BME280;3249;42.690;23.260;2023-05-14T01:36:12;94680.19;;;12.97;85.17
6433;BME280;3249;42.690;23.260;2023-05-14T01:38:44;94664.59;;;13.04;84.96
6433;BME280;3249;42.690;23.260;2023-05-14T01:41:14;94674.16;;;13.03;86.40
6433;BME280;3249;42.690;23.260;2023-05-14T01:43:45;94678.19;;;12.99;84.89
6433;BME280;3249;42.690;23.260;2023-05-14T01:46:16;94669.28;;;12.95;86.68
6433;BME280;3249;42.690;23.260;2023-05-14T01:48:45;94668.06;;;12.98;87.15
6433;BME280;3249;42.690;23.260;2023-05-14T01:51:17;94665.91;;;12.95;87.04
6433;BME280;3249;42.690;23.260;2023-05-14T01:53:50;94669.72;;;12.92;88.42
6433;BME280;3249;42.690;23.260;2023-05-14T01:56:19;94675.44;;;12.65;92.92
6433;BME280;3249;42.690;23.260;2023-05-14T01:58:49;94682.97;;;12.66;96.69
6433;BME280;3249;42.690;23.260;2023-05-14T02:01:18;94672.00;;;12.53;98.05
6433;BME280;3249;42.690;23.260;2023-05-14T02:03:47;94670.56;;;12.57;96.66
6433;BME280;3249;42.690;23.260;2023-05-14T02:06:16;94671.34;;;12.46;96.90
6433;BME280;3249;42.690;23.260;2023-05-14T02:08:45;94681.31;;;12.72;95.55
6433;BME280;3249;42.690;23.260;2023-05-14T02:11:17;94678.38;;;12.68;94.18
6433;BME280;3249;42.690;23.260;2023-05-14T02:13:46;94677.47;;;12.63;97.38
6433;BME280;3249;42.690;23.260;2023-05-14T02:16:15;94679.66;;;12.77;94.40
6433;BME280;3249;42.690;23.260;2023-05-14T02:18:44;94687.38;;;12.66;94.45
6433;BME280;3249;42.690;23.260;2023-05-14T02:21:14;94682.19;;;12.66;97.15
6433;BME280;3249;42.690;23.260;2023-05-14T02:23:43;94686.66;;;12.59;96.33
6433;BME280;3249;42.690;23.260;2023-05-14T02:26:16;94690.38;;;12.63;100.00
6433;BME280;3249;42.690;23.260;2023-05-14T02:28:46;94682.50;;;12.58;100.00
6433;BME280;3249;42.690;23.260;2023-05-14T02:31:16;94690.84;;;12.42;100.00
6433;BME280;3249;42.690;23.260;2023-05-14T02:33:45;94688.81;;;12.44;100.00
6433;BME280;3249;42.690;23.260;2023-05-14T02:36:13;94687.97;;;12.50;100.00
6433;BME280;3249;42.690;23.260;2023-05-14T02:38:42;94692.91;;;12.33;100.00
6433;BME280;3249;42.690;23.260;2023-05-14T02:41:11;94696.31;;;12.34;100.00
6433;BME280;3249;42.690;23.260;2023-05-14T02:43:43;94694.06;;;12.37;100.00
6433;BME280;3249;42.690;23.260;2023-05-14T02:46:13;94704.59;;;12.36;100.00
6433;BME280;3249;42.690;23.260;2023-05-14T02:48:42;94706.84;;;12.32;100.00
6433;BME280;3249;42.690;23.260;2023-05-14T02:51:11;94711.63;;;12.29;100.00
6433;BME280;3249;42.690;23.260;2023-05-14T02:53:41;94681.66;;;12.10;100.00
6433;BME280;3249;42.690;23.260;2023-05-14T02:56:10;94707.06;;;12.31;98.98
6433;BME280;3249;42.690;23.260;2023-05-14T02:58:39;94695.78;;;12.25;97.97
6433;BME280;3249;42.690;23.260;2023-05-14T03:01:10;94714.13;;;12.35;96.13
6433;BME280;3249;42.690;23.260;2023-05-14T03:03:39;94692.63;;;12.23;96.74
6433;BME280;3249;42.690;23.260;2023-05-14T03:06:08;94701.31;;;12.29;95.66
6433;BME280;3249;42.690;23.260;2023-05-14T03:08:37;94703.25;;;12.33;95.53
6433;BME280;3249;42.690;23.260;2023-05-14T03:11:06;94690.97;;;12.29;95.70
6433;BME280;3249;42.690;23.260;2023-05-14T03:13:36;94676.59;;;12.21;96.81
6433;BME280;3249;42.690;23.260;2023-05-14T03:16:06;94682.09;;;12.25;99.05
6433;BME280;3249;42.690;23.260;2023-05-14T03:18:38;94690.41;;;12.27;97.50
6433;BME280;3249;42.690;23.260;2023-05-14T03:21:09;94680.31;;;12.25;98.35
6433;BME280;3249;42.690;23.260;2023-05-14T03:23:38;94688.69;;;12.21;99.84
6433;BME280;3249;42.690;23.260;2023-05-14T03:26:07;94677.22;;;12.17;100.00
6433;BME280;3249;42.690;23.260;2023-05-14T03:28:36;94693.56;;;12.11;100.00
6433;BME280;3249;42.690;23.260;2023-05-14T03:31:05;94696.78;;;12.06;100.00
6433;BME280;3249;42.690;23.260;2023-05-14T03:33:38;94689.97;;;11.94;100.00
6433;BME280;3249;42.690;23.260;2023-05-14T03:36:08;94693.75;;;11.91;100.00
6433;BME280;3249;42.690;23.260;2023-05-14T03:38:37;94694.25;;;11.82;100.00
6433;BME280;3249;42.690;23.260;2023-05-14T03:41:07;94688.94;;;11.77;100.00
6433;BME280;3249;42.690;23.260;2023-05-14T03:43:36;94668.75;;;11.49;100.00
6433;BME280;3249;42.690;23.260;2023-05-14T03:46:05;94681.78;;;11.54;100.00
6433;BME280;3249;42.690;23.260;2023-05-14T03:48:34;94682.72;;;11.60;100.00
6433;BME280;3249;42.690;23.260;2023-05-14T03:51:07;94689.88;;;11.58;100.00
6433;BME280;3249;42.690;23.260;2023-05-14T03:53:36;94693.25;;;11.58;100.00
6433;BME280;3249;42.690;23.260;2023-05-14T03:56:06;94687.28;;;11.58;100.00
6433;BME280;3249;42.690;23.260;2023-05-14T03:58:35;94687.16;;;11.53;100.00
6433;BME280;3249;42.690;23.260;2023-05-14T04:01:04;94684.16;;;11.56;100.00
6433;BME280;3249;42.690;23.260;2023-05-14T04:03:35;94688.50;;;11.55;100.00
6433;BME280;3249;42.690;23.260;2023-05-14T04:06:07;94697.22;;;11.61;100.00
6433;BME280;3249;42.690;23.260;2023-05-14T04:08:36;94696.63;;;11.59;100.00
6433;BME280;3249;42.690;23.260;2023-05-14T04:11:05;94698.78;;;11.62;100.00
6433;BME280;3249;42.690;23.260;2023-05-14T04:13:34;94705.34;;;11.58;100.00
6433;BME280;3249;42.690;23.260;2023-05-14T04:16:04;94718.19;;;11.71;100.00
6433;BME280;3249;42.690;23.260;2023-05-14T04:18:34;94707.00;;;11.77;100.00
6433;BME280;3249;42.690;23.260;2023-05-14T04:21:03;94706.84;;;11.72;100.00
6433;BME280;3249;42.690;23.260;2023-05-14T04:23:35;94721.25;;;11.79;100.00
6433;BME280;3249;42.690;23.260;2023-05-14T04:26:04;94718.25;;;11.82;100.00
6433;BME280;3249;42.690;23.260;2023-05-14T04:28:33;94725.94;;;11.89;100.00
6433;BME280;3249;42.690;23.260;2023-05-14T04:31:02;94729.53;;;11.88;100.00
6433;BME280;3249;42.690;23.260;2023-05-14T04:33:31;94724.38;;;11.88;100.00
6433;BME280;3249;42.690;23.260;2023-05-14T04:36:00;94720.28;;;11.80;100.00
6433;BME280;3249;42.690;23.260;2023-05-14T04:38:29;94729.16;;;11.84;100.00
6433;BME280;3249;42.690;23.260;2023-05-14T04:41:01;94744.41;;;11.86;100.00
6433;BME280;3249;42.690;23.260;2023-05-14T04:43:30;94738.28;;;11.87;100.00
6433;BME280;3249;42.690;23.260;2023-05-14T04:46:00;94755.03;;;11.96;100.00
6433;BME280;3249;42.690;23.260;2023-05-14T04:48:29;94753.41;;;12.01;100.00
6433;BME280;3249;42.690;23.260;2023-05-14T04:50:58;94754.34;;;12.07;100.00
6433;BME280;3249;42.690;23.260;2023-05-14T04:53:27;94753.50;;;12.13;100.00
6433;BME280;3249;42.690;23.260;2023-05-14T04:55:56;94767.41;;;12.12;100.00
6433;BME280;3249;42.690;23.260;2023-05-14T04:58:28;94775.16;;;12.12;100.00
6433;BME280;3249;42.690;23.260;2023-05-14T05:00:58;94738.28;;;11.87;100.00
6433;BME280;3249;42.690;23.260;2023-05-14T05:03:27;94787.41;;;12.16;100.00
6433;BME280;3249;42.690;23.260;2023-05-14T05:05:56;94795.38;;;12.15;100.00
6433;BME280;3249;42.690;23.260;2023-05-14T05:08:25;94790.56;;;12.18;100.00
6433;BME280;3249;42.690;23.260;2023-05-14T05:10:54;94792.47;;;12.05;100.00
6433;BME280;3249;42.690;23.260;2023-05-14T05:13:23;94782.16;;;12.05;100.00
6433;BME280;3249;42.690;23.260;2023-05-14T05:15:55;94788.59;;;11.96;100.00
6433;BME280;3249;42.690;23.260;2023-05-14T05:18:24;94793.97;;;11.94;100.00
6433;BME280;3249;42.690;23.260;2023-05-14T05:20:53;94796.47;;;12.01;100.00
6433;BME280;3249;42.690;23.260;2023-05-14T05:23:22;94805.78;;;12.02;100.00
6433;BME280;3249;42.690;23.260;2023-05-14T05:25:50;94803.81;;;12.04;100.00
6433;BME280;3249;42.690;23.260;2023-05-14T05:28:19;94783.28;;;11.91;100.00
6433;BME280;3249;42.690;23.260;2023-05-14T05:30:49;94802.00;;;11.80;100.00
6433;BME280;3249;42.690;23.260;2023-05-14T05:33:21;94802.16;;;11.85;100.00
6433;BME280;3249;42.690;23.260;2023-05-14T05:35:50;94802.69;;;11.69;100.00
6433;BME280;3249;42.690;23.260;2023-05-14T05:38:19;94804.91;;;11.90;100.00
6433;BME280;3249;42.690;23.260;2023-05-14T05:40:48;94805.41;;;11.80;100.00
6433;BME280;3249;42.690;23.260;2023-05-14T05:43:17;94809.00;;;11.73;100.00
6433;BME280;3249;42.690;23.260;2023-05-14T05:45:46;94810.31;;;11.82;100.00
6433;BME280;3249;42.690;23.260;2023-05-14T05:48:15;94810.91;;;11.84;100.00
6433;BME280;3249;42.690;23.260;2023-05-14T05:50:48;94815.31;;;11.77;100.00
6433;BME280;3249;42.690;23.260;2023-05-14T05:53:17;94813.06;;;11.87;100.00
6433;BME280;3249;42.690;23.260;2023-05-14T05:55:46;94798.28;;;11.76;100.00
6433;BME280;3249;42.690;23.260;2023-05-14T05:58:16;94805.13;;;11.57;100.00
6433;BME280;3249;42.690;23.260;2023-05-14T06:00:45;94798.97;;;11.27;100.00
6433;BME280;3249;42.690;23.260;2023-05-14T06:03:15;94797.31;;;11.02;100.00
6433;BME280;3249;42.690;23.260;2023-05-14T06:05:43;94798.19;;;10.83;100.00
6433;BME280;3249;42.690;23.260;2023-05-14T06:08:15;94803.38;;;10.70;100.00
6433;BME280;3249;42.690;23.260;2023-05-14T06:10:44;94804.63;;;10.61;100.00
6433;BME280;3249;42.690;23.260;2023-05-14T06:13:13;94804.41;;;10.62;100.00
6433;BME280;3249;42.690;23.260;2023-05-14T06:15:42;94798.88;;;10.59;100.00
6433;BME280;3249;42.690;23.260;2023-05-14T06:18:11;94799.47;;;10.61;100.00
6433;BME280;3249;42.690;23.260;2023-05-14T06:20:40;94794.91;;;10.56;100.00
6433;BME280;3249;42.690;23.260;2023-05-14T06:23:09;94786.25;;;10.44;100.00
6433;BME280;3249;42.690;23.260;2023-05-14T06:25:41;94784.72;;;10.30;100.00
6433;BME280;3249;42.690;23.260;2023-05-14T06:28:10;94798.56;;;10.29;100.00
6433;BME280;3249;42.690;23.260;2023-05-14T06:30:39;94804.88;;;10.27;100.00
6433;BME280;3249;42.690;23.260;2023-05-14T06:33:08;94814.41;;;10.33;100.00
6433;BME280;3249;42.690;23.260;2023-05-14T06:35:38;94805.69;;;10.27;100.00
6433;BME280;3249;42.690;23.260;2023-05-14T06:38:07;94806.28;;;10.36;100.00
6433;BME280;3249;42.690;23.260;2023-05-14T06:40:35;94777.78;;;10.24;100.00
6433;BME280;3249;42.690;23.260;2023-05-14T06:43:07;94804.47;;;10.43;100.00
6433;BME280;3249;42.690;23.260;2023-05-14T06:45:36;94800.91;;;10.44;100.00
6433;BME280;3249;42.690;23.260;2023-05-14T06:48:05;94793.59;;;10.34;100.00
6433;BME280;3249;42.690;23.260;2023-05-14T06:50:34;94764.16;;;10.11;100.00
6433;BME280;3249;42.690;23.260;2023-05-14T06:53:04;94795.78;;;10.37;100.00
6433;BME280;3249;42.690;23.260;2023-05-14T06:55:33;94791.03;;;10.41;100.00
6433;BME280;3249;42.690;23.260;2023-05-14T06:58:01;94779.31;;;10.45;100.00
6433;BME280;3249;42.690;23.260;2023-05-14T07:00:33;94780.31;;;10.44;100.00
6433;BME280;3249;42.690;23.260;2023-05-14T07:03:03;94783.13;;;10.36;100.00
6433;BME280;3249;42.690;23.260;2023-05-14T07:05:32;94797.72;;;10.42;100.00
6433;BME280;3249;42.690;23.260;2023-05-14T07:08:01;94800.09;;;10.50;100.00
6433;BME280;3249;42.690;23.260;2023-05-14T07:10:30;94799.63;;;10.66;100.00
6433;BME280;3249;42.690;23.260;2023-05-14T07:12:59;94802.94;;;10.09;100.00
6433;BME280;3249;42.690;23.260;2023-05-14T07:15:28;94812.84;;;10.25;100.00
6433;BME280;3249;42.690;23.260;2023-05-14T07:18:00;94833.78;;;10.35;100.00
6433;BME280;3249;42.690;23.260;2023-05-14T07:20:29;94838.09;;;10.54;100.00
6433;BME280;3249;42.690;23.260;2023-05-14T07:22:58;94820.63;;;10.63;100.00
6433;BME280;3249;42.690;23.260;2023-05-14T07:25:27;94823.00;;;10.77;100.00
6433;BME280;3249;42.690;23.260;2023-05-14T07:27:57;94821.25;;;10.65;100.00
6433;BME280;3249;42.690;23.260;2023-05-14T07:30:26;94813.50;;;10.71;100.00
6433;BME280;3249;42.690;23.260;2023-05-14T07:32:56;94817.81;;;10.84;100.00
6433;BME280;3249;42.690;23.260;2023-05-14T07:35:27;94821.75;;;10.86;100.00
6433;BME280;3249;42.690;23.260;2023-05-14T07:37:56;94827.34;;;10.77;100.00
6433;BME280;3249;42.690;23.260;2023-05-14T07:40:25;94824.59;;;10.59;100.00
6433;BME280;3249;42.690;23.260;2023-05-14T07:42:54;94822.28;;;10.38;100.00
6433;BME280;3249;42.690;23.260;2023-05-14T07:45:23;94823.41;;;10.68;100.00
6433;BME280;3249;42.690;23.260;2023-05-14T07:47:52;94824.97;;;10.75;100.00
6433;BME280;3249;42.690;23.260;2023-05-14T07:50:22;94825.66;;;11.02;100.00
6433;BME280;3249;42.690;23.260;2023-05-14T07:52:53;94827.38;;;11.14;100.00
6433;BME280;3249;42.690;23.260;2023-05-14T07:55:22;94835.69;;;11.16;100.00
6433;BME280;3249;42.690;23.260;2023-05-14T07:57:51;94830.28;;;11.24;100.00
6433;BME280;3249;42.690;23.260;2023-05-14T08:00:21;94836.22;;;11.31;100.00
6433;BME280;3249;42.690;23.260;2023-05-14T08:02:50;94838.03;;;11.24;100.00
6433;BME280;3249;42.690;23.260;2023-05-14T08:05:19;94840.38;;;10.88;100.00
6433;BME280;3249;42.690;23.260;2023-05-14T08:07:48;94849.03;;;11.00;100.00
6433;BME280;3249;42.690;23.260;2023-05-14T08:10:19;94829.34;;;10.68;100.00
6433;BME280;3249;42.690;23.260;2023-05-14T08:12:49;94811.59;;;10.98;100.00
6433;BME280;3249;42.690;23.260;2023-05-14T08:15:18;94814.63;;;10.82;100.00
6433;BME280;3249;42.690;23.260;2023-05-14T08:17:47;94797.25;;;10.64;100.00
6433;BME280;3249;42.690;23.260;2023-05-14T08:20:16;94808.69;;;10.88;100.00
6433;BME280;3249;42.690;23.260;2023-05-14T08:22:45;94815.31;;;11.08;100.00
6433;BME280;3249;42.690;23.260;2023-05-14T08:25:14;94808.19;;;11.10;100.00
6433;BME280;3249;42.690;23.260;2023-05-14T08:27:45;94809.38;;;11.08;100.00
6433;BME280;3249;42.690;23.260;2023-05-14T08:30:14;94800.28;;;11.05;100.00
6433;BME280;3249;42.690;23.260;2023-05-14T08:32:44;94796.22;;;11.22;100.00
6433;BME280;3249;42.690;23.260;2023-05-14T08:35:13;94800.50;;;11.04;100.00
6433;BME280;3249;42.690;23.260;2023-05-14T08:37:42;94784.25;;;10.97;100.00
6433;BME280;3249;42.690;23.260;2023-05-14T08:40:11;94790.06;;;10.86;100.00
6433;BME280;3249;42.690;23.260;2023-05-14T08:42:45;94787.25;;;10.94;100.00
6433;BME280;3249;42.690;23.260;2023-05-14T08:45:18;94785.06;;;10.97;100.00
6433;BME280;3249;42.690;23.260;2023-05-14T08:47:48;94774.38;;;10.94;100.00
6433;BME280;3249;42.690;23.260;2023-05-14T08:50:18;94797.19;;;10.90;100.00
6433;BME280;3249;42.690;23.260;2023-05-14T08:52:47;94790.75;;;11.06;100.00
6433;BME280;3249;42.690;23.260;2023-05-14T08:55:16;94785.66;;;10.93;100.00
6433;BME280;3249;42.690;23.260;2023-05-14T08:57:47;94786.88;;;10.90;100.00
6433;BME280;3249;42.690;23.260;2023-05-14T09:00:17;94788.09;;;10.88;100.00
6433;BME280;3249;42.690;23.260;2023-05-14T09:02:47;94795.16;;;10.99;100.00
6433;BME280;3249;42.690;23.260;2023-05-14T09:05:18;94799.84;;;11.15;100.00
6433;BME280;3249;42.690;23.260;2023-05-14T09:07:47;94794.06;;;11.19;100.00
6433;BME280;3249;42.690;23.260;2023-05-14T09:10:16;94795.47;;;11.15;100.00
6433;BME280;3249;42.690;23.260;2023-05-14T09:12:48;94790.75;;;11.06;100.00
6433;BME280;3249;42.690;23.260;2023-05-14T09:15:17;94775.06;;;10.70;100.00
6433;BME280;3249;42.690;23.260;2023-05-14T09:17:46;94775.94;;;10.44;100.00
6433;BME280;3249;42.690;23.260;2023-05-14T09:20:18;94779.00;;;10.72;100.00
6433;BME280;3249;42.690;23.260;2023-05-14T09:22:51;94779.72;;;10.92;100.00
6433;BME280;3249;42.690;23.260;2023-05-14T09:25:25;94793.28;;;11.12;100.00
6433;BME280;3249;42.690;23.260;2023-05-14T09:27:57;94781.34;;;11.24;100.00
6433;BME280;3249;42.690;23.260;2023-05-14T09:30:29;94766.81;;;11.30;100.00
6433;BME280;3249;42.690;23.260;2023-05-14T09:33:00;94775.94;;;11.32;100.00
6433;BME280;3249;42.690;23.260;2023-05-14T09:35:29;94780.06;;;11.40;100.00
6433;BME280;3249;42.690;23.260;2023-05-14T09:37:58;94776.72;;;11.33;100.00
6433;BME280;3249;42.690;23.260;2023-05-14T09:40:27;94758.63;;;11.15;100.00
6433;BME280;3249;42.690;23.260;2023-05-14T09:42:58;94761.59;;;11.43;100.00
6433;BME280;3249;42.690;23.260;2023-05-14T09:45:28;94762.44;;;11.37;100.00
6433;BME280;3249;42.690;23.260;2023-05-14T09:47:59;94762.84;;;11.34;100.00
6433;BME280;3249;42.690;23.260;2023-05-14T09:50:27;94763.53;;;11.23;100.00
6433;BME280;3249;42.690;23.260;2023-05-14T09:52:57;94763.38;;;11.11;100.00
6433;BME280;3249;42.690;23.260;2023-05-14T09:55:28;94759.84;;;11.06;100.00
6433;BME280;3249;42.690;23.260;2023-05-14T09:58:00;94758.19;;;11.18;100.00
6433;BME280;3249;42.690;23.260;2023-05-14T10:00:30;94755.94;;;10.97;100.00
6433;BME280;3249;42.690;23.260;2023-05-14T10:03:04;94738.75;;;10.91;100.00
6433;BME280;3249;42.690;23.260;2023-05-14T10:05:34;94735.50;;;11.02;100.00
6433;BME280;3249;42.690;23.260;2023-05-14T10:08:07;94741.41;;;11.09;100.00
6433;BME280;3249;42.690;23.260;2023-05-14T10:10:37;94739.22;;;11.06;100.00
6433;BME280;3249;42.690;23.260;2023-05-14T10:13:13;94721.41;;;11.04;100.00
6433;BME280;3249;42.690;23.260;2023-05-14T10:15:47;94705.63;;;10.94;100.00
6433;BME280;3249;42.690;23.260;2023-05-14T10:18:18;94713.06;;;11.09;100.00
6433;BME280;3249;42.690;23.260;2023-05-14T10:20:51;94697.94;;;11.19;100.00
6433;BME280;3249;42.690;23.260;2023-05-14T10:23:22;94717.56;;;11.20;100.00
6433;BME280;3249;42.690;23.260;2023-05-14T10:25:51;94728.63;;;11.27;100.00
6433;BME280;3249;42.690;23.260;2023-05-14T10:28:23;94735.69;;;11.31;100.00
6433;BME280;3249;42.690;23.260;2023-05-14T10:30:53;94735.19;;;11.23;100.00
6433;BME280;3249;42.690;23.260;2023-05-14T10:33:22;94731.69;;;11.11;100.00
6433;BME280;3249;42.690;23.260;2023-05-14T10:36:02;94724.69;;;11.18;100.00
6433;BME280;3249;42.690;23.260;2023-05-14T10:38:35;94716.75;;;10.88;100.00
6433;BME280;3249;42.690;23.260;2023-05-14T10:41:06;94732.63;;;10.85;100.00
6433;BME280;3249;42.690;23.260;2023-05-14T10:43:43;94720.31;;;10.87;100.00
6433;BME280;3249;42.690;23.260;2023-05-14T10:46:13;94726.03;;;10.96;100.00
6433;BME280;3249;42.690;23.260;2023-05-14T10:48:43;94722.66;;;10.58;100.00
6433;BME280;3249;42.690;23.260;2023-05-14T10:51:12;94720.06;;;10.58;100.00
6433;BME280;3249;42.690;23.260;2023-05-14T10:53:42;94718.34;;;10.83;100.00
6433;BME280;3249;42.690;23.260;2023-05-14T10:56:12;94711.34;;;10.96;100.00
6433;BME280;3249;42.690;23.260;2023-05-14T10:58:44;94705.69;;;11.12;100.00
6433;BME280;3249;42.690;23.260;2023-05-14T11:01:13;94718.38;;;11.14;100.00
6433;BME280;3249;42.690;23.260;2023-05-14T11:03:43;94717.78;;;10.81;100.00
6433;BME280;3249;42.690;23.260;2023-05-14T11:06:14;94723.22;;;11.04;100.00
6433;BME280;3249;42.690;23.260;2023-05-14T11:08:43;94724.31;;;10.83;100.00
6433;BME280;3249;42.690;23.260;2023-05-14T11:11:13;94717.16;;;10.48;100.00
6433;BME280;3249;42.690;23.260;2023-05-14T11:13:46;94713.34;;;10.57;100.00
6433;BME280;3249;42.690;23.260;2023-05-14T11:16:16;94726.84;;;10.46;100.00
6433;BME280;3249;42.690;23.260;2023-05-14T11:19:00;94720.06;;;10.58;100.00
6433;BME280;3249;42.690;23.260;2023-05-14T11:21:29;94718.97;;;10.41;100.00
6433;BME280;3249;42.690;23.260;2023-05-14T11:23:59;94711.91;;;10.67;100.00
6433;BME280;3249;42.690;23.260;2023-05-14T11:26:30;94714.69;;;11.03;100.00
6433;BME280;3249;42.690;23.260;2023-05-14T11:29:03;94717.41;;;11.08;100.00
6433;BME280;3249;42.690;23.260;2023-05-14T11:31:32;94709.81;;;11.44;100.00
6433;BME280;3249;42.690;23.260;2023-05-14T11:34:01;94717.78;;;11.43;100.00
6433;BME280;3249;42.690;23.260;2023-05-14T11:36:32;94716.25;;;11.60;100.00
6433;BME280;3249;42.690;23.260;2023-05-14T11:39:01;94719.97;;;11.70;100.00
6433;BME280;3249;42.690;23.260;2023-05-14T11:41:30;94718.03;;;11.59;100.00
6433;BME280;3249;42.690;23.260;2023-05-14T11:44:01;94692.91;;;11.55;100.00
6433;BME280;3249;42.690;23.260;2023-05-14T11:46:33;94700.72;;;11.42;100.00
6433;BME280;3249;42.690;23.260;2023-05-14T11:49:03;94702.19;;;11.31;100.00
6433;BME280;3249;42.690;23.260;2023-05-14T11:51:35;94692.16;;;10.92;100.00
6433;BME280;3249;42.690;23.260;2023-05-14T11:54:07;94703.53;;;10.78;100.00
6433;BME280;3249;42.690;23.260;2023-05-14T11:56:38;94696.81;;;10.71;100.00
6433;BME280;3249;42.690;23.260;2023-05-14T11:59:10;94675.16;;;11.16;100.00
6433;BME280;3249;42.690;23.260;2023-05-14T12:01:39;94685.16;;;11.30;100.00
6433;BME280;3249;42.690;23.260;2023-05-14T12:04:08;94687.88;;;11.60;100.00
6433;BME280;3249;42.690;23.260;2023-05-14T12:06:38;94692.53;;;11.94;100.00
6433;BME280;3249;42.690;23.260;2023-05-14T12:09:11;94675.75;;;11.67;100.00
6433;BME280;3249;42.690;23.260;2023-05-14T12:11:42;94682.66;;;12.09;100.00
6433;BME280;3249;42.690;23.260;2023-05-14T12:14:23;94674.56;;;12.23;100.00
6433;BME280;3249;42.690;23.260;2023-05-14T12:16:52;94658.00;;;12.31;100.00
6433;BME280;3249;42.690;23.260;2023-05-14T12:19:24;94659.78;;;12.48;100.00
6433;BME280;3249;42.690;23.260;2023-05-14T12:21:53;94650.38;;;12.36;100.00
6433;BME280;3249;42.690;23.260;2023-05-14T12:24:28;94646.47;;;12.63;100.00
6433;BME280;3249;42.690;23.260;2023-05-14T12:27:02;94638.97;;;12.73;100.00
6433;BME280;3249;42.690;23.260;2023-05-14T12:29:39;94632.41;;;12.29;100.00
6433;BME280;3249;42.690;23.260;2023-05-14T12:32:08;94533.06;;;11.91;100.00
6433;BME280;3249;42.690;23.260;2023-05-14T12:34:39;94634.09;;;12.53;100.00
6433;BME280;3249;42.690;23.260;2023-05-14T12:37:07;94652.28;;;12.58;100.00
6433;BME280;3249;42.690;23.260;2023-05-14T12:39:36;94630.50;;;12.07;100.00
6433;BME280;3249;42.690;23.260;2023-05-14T12:42:06;94635.78;;;12.30;100.00
6433;BME280;3249;42.690;23.260;2023-05-14T12:44:41;94616.28;;;11.98;100.00
6433;BME280;3249;42.690;23.260;2023-05-14T12:47:10;94611.94;;;11.98;100.00
6433;BME280;3249;42.690;23.260;2023-05-14T12:49:39;94630.16;;;12.33;100.00
6433;BME280;3249;42.690;23.260;2023-05-14T12:52:08;94629.97;;;12.64;100.00
6433;BME280;3249;42.690;23.260;2023-05-14T12:54:37;94624.53;;;12.24;100.00
6433;BME280;3249;42.690;23.260;2023-05-14T12:57:08;94627.38;;;12.34;100.00
6433;BME280;3249;42.690;23.260;2023-05-14T12:59:40;94621.59;;;11.85;100.00
6433;BME280;3249;42.690;23.260;2023-05-14T13:02:09;94626.84;;;11.96;100.00
6433;BME280;3249;42.690;23.260;2023-05-14T13:04:38;94617.75;;;11.76;100.00
6433;BME280;3249;42.690;23.260;2023-05-14T13:07:07;94628.91;;;12.24;100.00
6433;BME280;3249;42.690;23.260;2023-05-14T13:09:36;94630.16;;;12.51;100.00
6433;BME280;3249;42.690;23.260;2023-05-14T13:12:08;94623.72;;;12.42;100.00
6433;BME280;3249;42.690;23.260;2023-05-14T13:14:45;94609.72;;;12.49;100.00
6433;BME280;3249;42.690;23.260;2023-05-14T13:17:14;94622.16;;;12.23;100.00